Time;durP1;ratioP1;P1;durP2;ratioP2;P2;SDS_P1;SDS_P2;PMS_P1;PMS_P2;Temp;Humidity;BMP_temperature;BMP_pressure;BME280_temperature;BME280_humidity;BME280_pressure;Samples;Min_cycle;Max_cycle;Signal;HPM_P1;HPM_P2
2023/12/10 00:00:34;;;;;;;;;;;;;;;16.51;39.43;101066.81;4967131;28;1220;-50
2023/12/10 00:02:59;;;;;;;;;;;;;;;15.96;40.84;101066.84;4971859;28;1510;-49
2023/12/10 00:05:25;;;;;;;;;;;;;;;15.66;41.35;101065.25;4977983;28;1061;-48
2023/12/10 00:07:50;;;;;;;;;;;;;;;16.94;39.07;101066.63;4972845;28;1144;-50
2023/12/10 00:10:16;;;;;;;;;;;;;;;17.40;37.69;101057.22;4969773;28;1119;-52
2023/12/10 00:12:42;;;;;;;;;;;;;;;16.45;39.80;101075.19;4973418;28;1068;-45
2023/12/10 00:15:08;;;;;;;;;;;;;;;15.99;40.47;101076.44;4972556;28;838;-49
2023/12/10 00:17:34;;;;;;;;;;;;;;;15.66;41.09;101073.19;4960457;28;1895;-48
2023/12/10 00:19:59;;;;;;;;;;;;;;;16.37;40.28;101080.16;4970087;28;1151;-48
2023/12/10 00:22:25;;;;;;;;;;;;;;;17.42;37.84;101086.38;4972960;28;1167;-47
2023/12/10 00:24:50;;;;;;;;;;;;;;;16.84;38.84;101095.63;4970317;28;1084;-50
2023/12/10 00:27:16;;;;;;;;;;;;;;;16.12;40.54;101093.25;4963415;28;1152;-49
2023/12/10 00:29:42;;;;;;;;;;;;;;;15.78;40.80;101090.97;4958535;28;1066;-51
2023/12/10 00:32:07;;;;;;;;;;;;;;;16.30;40.35;101082.38;4975978;28;1143;-50
2023/12/10 00:34:33;;;;;;;;;;;;;;;17.41;37.81;101090.84;4978240;28;1159;-51
2023/12/10 00:36:58;;;;;;;;;;;;;;;16.40;39.41;101086.13;4973668;28;1899;-47
2023/12/10 00:39:24;;;;;;;;;;;;;;;15.90;40.65;101088.47;4961436;28;1019;-47
2023/12/10 00:41:49;;;;;;;;;;;;;;;15.60;41.52;101087.69;4975864;28;1080;-48
2023/12/10 00:44:15;;;;;;;;;;;;;;;16.35;40.00;101090.06;4978213;28;1076;-49
2023/12/10 00:46:41;;;;;;;;;;;;;;;17.40;37.93;101086.47;4973171;28;1159;-50
2023/12/10 00:49:07;;;;;;;;;;;;;;;16.63;39.38;101094.34;4969548;28;1132;-50
2023/12/10 00:51:32;;;;;;;;;;;;;;;16.07;40.25;101078.59;4965411;28;1079;-54
2023/12/10 00:53:58;;;;;;;;;;;;;;;15.89;40.95;101076.16;4977578;28;1049;-50
2023/12/10 00:56:23;;;;;;;;;;;;;;;17.24;38.34;101078.75;4977346;28;1061;-48
2023/12/10 00:58:49;;;;;;;;;;;;;;;16.99;38.50;101081.31;4977923;28;1914;-49
2023/12/10 01:01:15;;;;;;;;;;;;;;;16.23;40.08;101067.81;4973036;28;1088;-50
2023/12/10 01:03:40;;;;;;;;;;;;;;;15.83;41.10;101068.59;4973172;28;1111;-47
2023/12/10 01:06:06;;;;;;;;;;;;;;;15.64;41.27;101062.69;4960307;28;1180;-47
2023/12/10 01:08:31;;;;;;;;;;;;;;;16.82;39.28;101063.00;4969043;28;1140;-51
2023/12/10 01:10:58;;;;;;;;;;;;;;;17.11;38.31;101061.03;4963865;28;1243;-50
2023/12/10 01:13:24;;;;;;;;;;;;;;;16.24;39.98;101059.75;4977548;28;1072;-48
2023/12/10 01:15:50;;;;;;;;;;;;;;;15.76;40.95;101058.41;4971773;28;1012;-48
2023/12/10 01:18:16;;;;;;;;;;;;;;;16.19;40.25;101067.16;4968184;28;1976;-47
2023/12/10 01:20:42;;;;;;;;;;;;;;;17.41;37.91;101066.94;4973447;28;1140;-47
2023/12/10 01:23:07;;;;;;;;;;;;;;;16.79;38.84;101066.72;4968287;28;1057;-50
2023/12/10 01:25:34;;;;;;;;;;;;;;;16.08;40.28;101061.72;4976888;28;1131;-45
2023/12/10 01:28:00;;;;;;;;;;;;;;;15.70;41.30;101056.13;4970608;28;1006;-51
2023/12/10 01:30:26;;;;;;;;;;;;;;;15.91;41.29;101063.66;4964438;28;1169;-48
2023/12/10 01:32:52;;;;;;;;;;;;;;;17.22;38.41;101067.38;4976899;28;1123;-49
2023/12/10 01:35:17;;;;;;;;;;;;;;;16.94;38.79;101067.47;4975965;28;1125;-48
2023/12/10 01:37:43;;;;;;;;;;;;;;;16.19;40.48;101064.53;4966733;28;1970;-50
2023/12/10 01:40:09;;;;;;;;;;;;;;;15.74;41.11;101059.44;4969868;28;1127;-49
2023/12/10 01:42:35;;;;;;;;;;;;;;;15.62;41.45;101063.72;4957527;28;1145;-48
2023/12/10 01:45:00;;;;;;;;;;;;;;;16.97;38.79;101061.94;4957717;28;1131;-47
2023/12/10 01:47:27;;;;;;;;;;;;;;;17.25;38.12;101056.50;4957700;28;1129;-48
2023/12/10 01:49:52;;;;;;;;;;;;;;;16.22;39.88;101056.34;4974290;28;1085;-46
2023/12/10 01:52:22;;;;;;;;;;;;;;;15.88;41.10;101048.75;4959570;28;1041;-48
2023/12/10 01:54:47;;;;;;;;;;;;;;;15.70;41.59;101047.34;4967647;28;1156;-47
2023/12/10 01:57:13;;;;;;;;;;;;;;;17.07;38.60;101037.38;4966328;28;1987;-47
2023/12/10 01:59:38;;;;;;;;;;;;;;;17.14;38.18;101044.00;4961183;28;1101;-48
2023/12/10 02:02:04;;;;;;;;;;;;;;;16.22;40.16;101039.56;4977014;28;1025;-49
2023/12/10 02:04:29;;;;;;;;;;;;;;;15.82;41.13;101037.69;4965827;28;1047;-50
2023/12/10 02:06:55;;;;;;;;;;;;;;;15.74;41.29;101033.75;4970015;28;1025;-46
2023/12/10 02:09:21;;;;;;;;;;;;;;;17.18;38.35;101042.84;4975043;28;1058;-47
2023/12/10 02:11:46;;;;;;;;;;;;;;;17.00;38.48;101040.47;4961833;28;1084;-44
2023/12/10 02:14:12;;;;;;;;;;;;;;;16.14;40.39;101040.06;4978936;28;1177;-49
2023/12/10 02:16:38;;;;;;;;;;;;;;;15.78;41.00;101040.56;4962408;28;946;-47
2023/12/10 02:19:03;;;;;;;;;;;;;;;16.62;39.43;101043.97;4965556;28;1993;-50
2023/12/10 02:21:29;;;;;;;;;;;;;;;17.49;37.54;101037.97;4969925;28;1115;-45
2023/12/10 02:24:03;;;;;;;;;;;;;;;16.51;39.65;101037.63;4961248;28;1196;-50
2023/12/10 02:26:28;;;;;;;;;;;;;;;15.92;40.74;101028.19;4972883;28;1258;-48
2023/12/10 02:28:54;;;;;;;;;;;;;;;15.70;41.09;101036.72;4974310;28;1227;-49
2023/12/10 02:31:20;;;;;;;;;;;;;;;16.89;38.98;101027.94;4961577;28;1169;-50
2023/12/10 02:33:45;;;;;;;;;;;;;;;17.24;38.19;101028.22;4966865;28;1073;-49
2023/12/10 02:36:12;;;;;;;;;;;;;;;16.35;39.70;101029.81;4980764;28;1135;-47
2023/12/10 02:38:37;;;;;;;;;;;;;;;15.87;40.95;101022.34;4963018;28;1981;-46
2023/12/10 02:41:03;;;;;;;;;;;;;;;16.23;40.25;101017.38;4980653;28;1109;-48
2023/12/10 02:43:29;;;;;;;;;;;;;;;17.40;38.12;101027.97;4979917;28;1180;-47
2023/12/10 02:45:54;;;;;;;;;;;;;;;16.53;39.47;101027.72;4969698;28;1081;-46
2023/12/10 02:48:22;;;;;;;;;;;;;;;15.95;40.74;101024.50;4965111;28;1215;-46
2023/12/10 02:50:50;;;;;;;;;;;;;;;15.63;41.42;101018.53;4978605;28;1033;-47
2023/12/10 02:53:16;;;;;;;;;;;;;;;15.52;41.62;101021.03;4965320;28;1156;-47
2023/12/10 02:55:42;;;;;;;;;;;;;;;16.91;39.01;101026.97;4980129;28;1025;-47
2023/12/10 02:58:07;;;;;;;;;;;;;;;17.58;37.53;101027.63;4967233;28;1914;-51
2023/12/10 03:00:34;;;;;;;;;;;;;;;16.58;39.27;101023.91;4980291;28;1140;-50
2023/12/10 03:03:00;;;;;;;;;;;;;;;16.05;40.38;101024.78;4976275;28;1097;-50
2023/12/10 03:05:25;;;;;;;;;;;;;;;15.65;41.08;101024.59;4963275;28;1084;-47
2023/12/10 03:07:51;;;;;;;;;;;;;;;16.25;40.42;101028.72;4975221;28;1052;-51
2023/12/10 03:10:16;;;;;;;;;;;;;;;17.43;37.88;101035.75;4970666;28;1220;-50
2023/12/10 03:12:42;;;;;;;;;;;;;;;16.59;39.33;101025.59;4979719;28;1069;-48
2023/12/10 03:15:08;;;;;;;;;;;;;;;15.95;40.52;101021.84;4975792;28;1418;-48
2023/12/10 03:17:33;;;;;;;;;;;;;;;15.67;41.17;101020.06;4977172;28;1918;-46
2023/12/10 03:19:59;;;;;;;;;;;;;;;16.61;39.58;101023.69;4979999;28;1056;-49
2023/12/10 03:22:25;;;;;;;;;;;;;;;17.39;37.89;101023.63;4979388;28;1144;-48
2023/12/10 03:24:50;;;;;;;;;;;;;;;16.44;39.76;101023.03;4968976;28;1156;-48
2023/12/10 03:27:16;;;;;;;;;;;;;;;15.95;40.65;101027.16;4975964;28;1195;-46
2023/12/10 03:29:41;;;;;;;;;;;;;;;16.95;39.06;101023.16;4979255;28;1076;-49
2023/12/10 03:32:07;;;;;;;;;;;;;;;17.30;38.09;101019.81;4979308;28;1010;-53
2023/12/10 03:34:32;;;;;;;;;;;;;;;16.37;39.99;101022.59;4979106;28;1143;-50
2023/12/10 03:36:58;;;;;;;;;;;;;;;15.89;41.03;101023.97;4975080;28;1918;-49
2023/12/10 03:39:24;;;;;;;;;;;;;;;15.65;41.35;101027.25;4967584;28;1265;-49
2023/12/10 03:41:50;;;;;;;;;;;;;;;16.89;39.17;101032.41;4964497;28;1073;-48
2023/12/10 03:44:15;;;;;;;;;;;;;;;16.88;38.64;101023.56;4979194;28;1144;-48
2023/12/10 03:46:41;;;;;;;;;;;;;;;16.14;40.26;101030.31;4964931;28;1095;-50
2023/12/10 03:49:06;;;;;;;;;;;;;;;15.76;41.23;101026.56;4947946;28;2416;-51
2023/12/10 03:51:32;;;;;;;;;;;;;;;16.23;40.70;101030.66;4969426;28;2107;-48
2023/12/10 03:53:57;;;;;;;;;;;;;;;17.31;38.26;101032.16;4975041;28;1931;-49
2023/12/10 03:56:23;;;;;;;;;;;;;;;16.35;39.66;101039.63;4961169;28;2339;-48
2023/12/10 03:58:49;;;;;;;;;;;;;;;15.87;41.05;101033.81;4971745;28;1971;-47
2023/12/10 04:01:14;;;;;;;;;;;;;;;16.70;39.35;101028.34;4964830;28;2200;-49
2023/12/10 04:03:40;;;;;;;;;;;;;;;17.94;37.16;101031.19;4971364;28;1140;-49
2023/12/10 04:06:06;;;;;;;;;;;;;;;16.82;39.20;101015.19;4971964;28;1033;-49
2023/12/10 04:08:31;;;;;;;;;;;;;;;16.14;40.46;101014.41;4961101;28;1069;-50
2023/12/10 04:10:57;;;;;;;;;;;;;;;15.83;41.03;101005.75;4959143;28;1219;-45
2023/12/10 04:13:22;;;;;;;;;;;;;;;16.07;40.97;101001.63;4959102;28;1322;-49
2023/12/10 04:15:48;;;;;;;;;;;;;;;17.37;38.15;101001.59;4962492;28;1302;-49
2023/12/10 04:18:16;;;;;;;;;;;;;;;16.84;38.86;100997.31;4965601;28;1967;-45
2023/12/10 04:20:42;;;;;;;;;;;;;;;16.12;40.11;101003.03;4958577;29;1165;-47
2023/12/10 04:23:08;;;;;;;;;;;;;;;15.80;41.08;100992.72;4959019;28;1350;-50
2023/12/10 04:25:33;;;;;;;;;;;;;;;16.42;40.32;100994.88;4966613;28;1065;-49
2023/12/10 04:27:59;;;;;;;;;;;;;;;17.53;37.97;101000.50;4972780;28;1016;-48
2023/12/10 04:30:26;;;;;;;;;;;;;;;16.60;39.50;100995.44;4977928;28;1867;-45
2023/12/10 04:32:52;;;;;;;;;;;;;;;16.03;40.53;100991.22;4972274;28;1100;-47
2023/12/10 04:35:18;;;;;;;;;;;;;;;15.77;41.19;100992.91;4970629;28;1204;-46
2023/12/10 04:37:44;;;;;;;;;;;;;;;17.10;38.59;100989.38;4957992;28;1902;-48
2023/12/10 04:40:13;;;;;;;;;;;;;;;16.85;38.81;100993.72;4959637;28;1190;-47
2023/12/10 04:42:39;;;;;;;;;;;;;;;16.15;40.26;100996.66;4958776;28;1275;-48
2023/12/10 04:45:06;;;;;;;;;;;;;;;15.71;41.12;100998.63;4958612;28;1287;-46
2023/12/10 04:47:32;;;;;;;;;;;;;;;16.65;39.78;101006.56;4958682;28;1357;-48
2023/12/10 04:49:57;;;;;;;;;;;;;;;17.35;37.86;101006.22;4958355;28;1334;-51
2023/12/10 04:52:23;;;;;;;;;;;;;;;16.35;40.22;101010.41;4957612;28;1262;-47
2023/12/10 04:54:49;;;;;;;;;;;;;;;15.87;40.93;101022.34;4964663;28;1227;-50
2023/12/10 04:57:14;;;;;;;;;;;;;;;15.66;41.68;101028.94;4970266;28;1902;-50
2023/12/10 04:59:40;;;;;;;;;;;;;;;16.98;38.81;101028.25;4963985;28;1056;-47
2023/12/10 05:02:05;;;;;;;;;;;;;;;17.04;38.64;101034.94;4976068;28;2457;-46
2023/12/10 05:04:31;;;;;;;;;;;;;;;16.22;40.32;101031.59;4960281;28;1128;-47
2023/12/10 05:06:57;;;;;;;;;;;;;;;15.80;41.08;101029.84;4958317;28;1076;-46
2023/12/10 05:09:22;;;;;;;;;;;;;;;16.74;39.58;101023.69;4976436;28;1250;-49
2023/12/10 05:11:48;;;;;;;;;;;;;;;17.05;38.40;101031.34;4974927;28;927;-49
2023/12/10 05:14:14;;;;;;;;;;;;;;;16.22;40.25;101031.59;4964216;28;1132;-46
2023/12/10 05:16:39;;;;;;;;;;;;;;;15.79;41.03;101026.38;4969810;28;1069;-45
2023/12/10 05:19:05;;;;;;;;;;;;;;;16.05;40.50;101027.44;4962429;28;1993;-51
2023/12/10 05:21:30;;;;;;;;;;;;;;;17.28;38.22;101020.91;4965596;28;1123;-47
2023/12/10 05:23:56;;;;;;;;;;;;;;;16.64;39.29;101018.16;4962837;28;1131;-45
2023/12/10 05:26:22;;;;;;;;;;;;;;;16.01;40.73;101013.50;4975941;28;1003;-49
2023/12/10 05:28:48;;;;;;;;;;;;;;;17.22;38.41;101017.72;4960779;28;1223;-45
2023/12/10 05:31:14;;;;;;;;;;;;;;;16.14;40.04;101018.84;4958298;28;2200;-49
2023/12/10 05:33:39;;;;;;;;;;;;;;;15.29;41.90;101013.63;4957525;29;1255;-47
2023/12/10 05:36:05;;;;;;;;;;;;;;;16.84;39.01;101007.97;4956131;29;1397;-52
2023/12/10 05:38:31;;;;;;;;;;;;;;;15.35;41.82;100999.09;4956324;28;1910;-49
2023/12/10 05:40:56;;;;;;;;;;;;;;;16.81;39.36;101010.84;4958860;28;1339;-50
2023/12/10 05:43:22;;;;;;;;;;;;;;;16.55;39.53;101006.34;4959826;28;1147;-48
2023/12/10 05:45:48;;;;;;;;;;;;;;;15.43;41.88;101003.94;4972768;28;1077;-50
2023/12/10 05:48:13;;;;;;;;;;;;;;;17.06;38.83;101009.97;4976678;28;1049;-50
2023/12/10 05:50:39;;;;;;;;;;;;;;;16.14;40.37;101005.56;4964074;28;1184;-52
2023/12/10 05:53:04;;;;;;;;;;;;;;;15.41;42.06;101001.34;4968086;28;1064;-50
2023/12/10 05:55:30;;;;;;;;;;;;;;;17.12;38.75;101009.53;4973169;28;1088;-49
2023/12/10 05:57:56;;;;;;;;;;;;;;;15.64;41.29;101009.66;4967735;28;1899;-47
2023/12/10 06:00:21;;;;;;;;;;;;;;;17.46;38.10;101002.75;4961967;28;1168;-53
2023/12/10 06:02:47;;;;;;;;;;;;;;;16.69;39.39;101005.41;4957920;28;2187;-52
2023/12/10 06:05:12;;;;;;;;;;;;;;;16.27;40.63;101010.91;4957345;28;1214;-51
2023/12/10 06:07:38;;;;;;;;;;;;;;;18.08;36.82;100998.19;4956385;28;1114;-53
2023/12/10 06:10:04;;;;;;;;;;;;;;;16.34;40.01;101017.50;4957453;28;1037;-54
2023/12/10 06:12:30;;;;;;;;;;;;;;;16.93;39.65;101003.81;4957964;28;1439;-53
2023/12/10 06:14:56;;;;;;;;;;;;;;;17.11;38.50;100999.88;4957680;28;1029;-51
2023/12/10 06:17:21;;;;;;;;;;;;;;;15.95;41.13;101004.09;4965522;28;1914;-49
2023/12/10 06:19:47;;;;;;;;;;;;;;;16.08;41.26;101003.34;4957795;28;1073;-50
2023/12/10 06:22:13;;;;;;;;;;;;;;;17.92;37.32;100995.84;4966355;28;1073;-50
2023/12/10 06:24:38;;;;;;;;;;;;;;;16.20;40.63;100997.19;4957739;28;1057;-53
2023/12/10 06:27:04;;;;;;;;;;;;;;;16.91;39.75;100993.28;4957478;28;1050;-54
2023/12/10 06:29:30;;;;;;;;;;;;;;;17.31;38.43;100992.28;4957966;28;913;-52
2023/12/10 06:31:55;;;;;;;;;;;;;;;16.13;40.62;101002.06;4951086;28;1867;-56
2023/12/10 06:34:21;;;;;;;;;;;;;;;15.66;41.94;101002.41;4957170;28;1109;-53
2023/12/10 06:36:47;;;;;;;;;;;;;;;17.37;38.84;101004.25;4960210;28;1089;-52
2023/12/10 06:39:13;;;;;;;;;;;;;;;16.28;40.64;100997.53;4967058;28;1977;-54
2023/12/10 06:41:38;;;;;;;;;;;;;;;16.68;40.44;101002.88;4955921;28;1228;-55
2023/12/10 06:44:04;;;;;;;;;;;;;;;17.54;37.79;100994.22;4956717;28;1068;-52
2023/12/10 06:46:30;;;;;;;;;;;;;;;16.15;40.61;100999.31;4956644;28;1088;-54
2023/12/10 06:48:55;;;;;;;;;;;;;;;15.61;42.01;100990.41;4957397;28;1188;-54
2023/12/10 06:51:21;;;;;;;;;;;;;;;17.57;38.43;101005.47;4954503;28;1058;-55
2023/12/10 06:53:47;;;;;;;;;;;;;;;16.37;40.08;101003.16;4953745;28;1094;-50
2023/12/10 06:56:12;;;;;;;;;;;;;;;15.71;41.59;100995.97;4956709;28;1062;-50
2023/12/10 06:58:38;;;;;;;;;;;;;;;17.67;38.16;101002.13;4955813;28;1910;-53
2023/12/10 07:01:04;;;;;;;;;;;;;;;16.03;40.88;101004.47;4957744;28;1778;-53
2023/12/10 07:03:30;;;;;;;;;;;;;;;17.83;37.97;101007.19;4959623;28;987;-45
2023/12/10 07:05:55;;;;;;;;;;;;;;;17.67;37.77;101002.13;4971696;28;1172;-44
2023/12/10 07:08:21;;;;;;;;;;;;;;;16.27;40.48;101006.47;4953010;28;1121;-51
2023/12/10 07:10:46;;;;;;;;;;;;;;;15.78;41.57;101006.06;4972487;28;1101;-50
2023/12/10 07:13:12;;;;;;;;;;;;;;;17.37;38.89;101009.59;4952628;28;1121;-53
2023/12/10 07:15:38;;;;;;;;;;;;;;;16.80;39.47;101004.66;4959622;28;1022;-48
2023/12/10 07:18:04;;;;;;;;;;;;;;;16.00;41.13;101017.09;4954552;28;1903;-49
2023/12/10 07:20:29;;;;;;;;;;;;;;;15.55;42.10;101007.56;4960235;28;1255;-48
2023/12/10 07:22:55;;;;;;;;;;;;;;;16.37;40.96;101013.78;4953797;28;1129;-51
2023/12/10 07:25:20;;;;;;;;;;;;;;;16.59;40.04;101007.88;4960086;28;1054;-49
2023/12/10 07:27:46;;;;;;;;;;;;;;;16.95;39.58;101005.38;4959603;28;1036;-51
2023/12/10 07:30:12;;;;;;;;;;;;;;;18.43;36.63;101009.84;4958935;28;1180;-51
2023/12/10 07:32:38;;;;;;;;;;;;;;;16.64;40.04;101008.41;4950713;28;2094;-51
2023/12/10 07:35:03;;;;;;;;;;;;;;;15.87;41.22;101007.28;4963639;28;1280;-48
2023/12/10 07:37:29;;;;;;;;;;;;;;;15.74;41.99;101004.59;4967805;28;1910;-50
2023/12/10 07:39:55;;;;;;;;;;;;;;;17.40;38.47;101005.88;4963609;28;1017;-51
2023/12/10 07:42:21;;;;;;;;;;;;;;;15.98;41.16;101011.03;4959343;28;907;-49
2023/12/10 07:44:47;;;;;;;;;;;;;;;15.52;42.14;101008.63;4958651;28;1010;-50
2023/12/10 07:47:12;;;;;;;;;;;;;;;17.35;39.02;101009.69;4958767;28;1106;-53
2023/12/10 07:49:38;;;;;;;;;;;;;;;16.19;40.53;101007.91;4959149;28;1050;-54
2023/12/10 07:52:03;;;;;;;;;;;;;;;17.34;38.80;101012.47;4952032;28;1025;-54
2023/12/10 07:54:29;;;;;;;;;;;;;;;17.61;37.92;101025.59;4956170;28;1038;-51
2023/12/10 07:56:55;;;;;;;;;;;;;;;16.22;41.01;101019.19;4964137;28;1101;-49
2023/12/10 07:59:20;;;;;;;;;;;;;;;15.82;41.58;101005.88;4954259;28;1980;-51
2023/12/10 08:01:46;;;;;;;;;;;;;;;16.11;41.37;101016.41;4954482;28;2054;-54
2023/12/10 08:04:12;;;;;;;;;;;;;;;17.22;38.85;101022.16;4953843;28;1114;-55
2023/12/10 08:06:37;;;;;;;;;;;;;;;16.22;41.19;101016.53;4956342;28;864;-55
2023/12/10 08:09:04;;;;;;;;;;;;;;;18.25;37.16;101028.03;4954034;28;1061;-48
2023/12/10 08:11:30;;;;;;;;;;;;;;;16.99;39.31;101021.97;4958213;28;1291;-47
2023/12/10 08:13:56;;;;;;;;;;;;;;;16.14;40.99;101030.31;4951897;28;1129;-50
2023/12/10 08:16:22;;;;;;;;;;;;;;;17.19;39.15;101023.25;4957420;28;1137;-48
2023/12/10 08:18:48;;;;;;;;;;;;;;;16.48;40.51;101031.66;4952497;28;1914;-49
2023/12/10 08:21:15;;;;;;;;;;;;;;;15.92;41.50;101025.53;4945938;28;1086;-50
2023/12/10 08:23:40;;;;;;;;;;;;;;;17.38;38.81;101030.75;4952902;28;1176;-47
2023/12/10 08:26:06;;;;;;;;;;;;;;;16.33;40.62;101029.06;4958705;28;1094;-52
2023/12/10 08:28:31;;;;;;;;;;;;;;;15.72;41.53;101025.06;4953909;28;1212;-51
2023/12/10 08:30:57;;;;;;;;;;;;;;;17.20;39.16;101027.59;4953861;28;1814;-49
2023/12/10 08:33:22;;;;;;;;;;;;;;;16.09;41.12;101021.81;4954560;29;1138;-50
2023/12/10 08:35:48;;;;;;;;;;;;;;;17.01;39.52;101025.38;4958737;28;1026;-47
2023/12/10 08:38:14;;;;;;;;;;;;;;;17.54;37.99;101021.66;4959531;28;1914;-51
2023/12/10 08:40:39;;;;;;;;;;;;;;;16.17;40.95;101013.34;4969645;28;1145;-51
2023/12/10 08:43:05;;;;;;;;;;;;;;;17.34;39.06;101005.34;4956835;28;1307;-51
2023/12/10 08:45:30;;;;;;;;;;;;;;;16.64;39.83;101010.19;4967176;28;1149;-52
2023/12/10 08:47:56;;;;;;;;;;;;;;;15.83;41.48;101007.59;4956131;28;1011;-54
2023/12/10 08:50:22;;;;;;;;;;;;;;;17.23;39.19;101005.28;4964371;28;1395;-59
2023/12/10 08:52:47;;;;;;;;;;;;;;;16.40;40.44;101003.81;4961077;28;1057;-50
2023/12/10 08:55:13;;;;;;;;;;;;;;;15.78;41.87;101005.25;4957358;28;1139;-53
2023/12/10 08:57:38;;;;;;;;;;;;;;;17.20;39.20;100998.34;4952904;28;1997;-52
2023/12/10 09:00:04;;;;;;;;;;;;;;;16.23;40.94;100990.84;4968571;28;1150;-53
2023/12/10 09:02:30;;;;;;;;;;;;;;;15.78;41.84;100986.69;4956712;28;1765;-51
2023/12/10 09:04:55;;;;;;;;;;;;;;;16.96;39.87;100983.19;4958161;28;1165;-53
2023/12/10 09:07:21;;;;;;;;;;;;;;;16.32;40.37;100984.03;4951685;28;881;-50
2023/12/10 09:09:47;;;;;;;;;;;;;;;17.18;39.16;100975.50;4955137;28;1425;-52
2023/12/10 09:12:13;;;;;;;;;;;;;;;18.01;37.09;100972.16;4952978;28;1002;-54
2023/12/10 09:14:38;;;;;;;;;;;;;;;16.27;40.70;100979.03;4955142;28;1459;-50
2023/12/10 09:17:04;;;;;;;;;;;;;;;17.56;38.39;100979.00;4954947;28;1029;-50
2023/12/10 09:19:31;;;;;;;;;;;;;;;16.91;39.24;100972.03;4954137;28;1980;-57
2023/12/10 09:21:57;;;;;;;;;;;;;;;16.06;41.13;100971.59;4955028;28;1062;-51
2023/12/10 09:24:22;;;;;;;;;;;;;;;17.19;39.08;100967.44;4948070;28;1144;-53
2023/12/10 09:26:49;;;;;;;;;;;;;;;16.46;40.43;100962.72;4957527;28;1097;-50
2023/12/10 09:29:14;;;;;;;;;;;;;;;15.84;41.59;100961.53;4958317;28;1084;-50
2023/12/10 09:31:40;;;;;;;;;;;;;;;17.84;37.78;100964.50;4957179;28;1800;-50
2023/12/10 09:34:06;;;;;;;;;;;;;;;16.55;40.01;100957.72;4949059;28;1154;-49
2023/12/10 09:36:31;;;;;;;;;;;;;;;15.89;41.23;100949.66;4957790;28;1157;-51
2023/12/10 09:38:57;;;;;;;;;;;;;;;15.63;41.98;100951.41;4950027;28;1906;-48
2023/12/10 09:41:22;;;;;;;;;;;;;;;17.10;39.18;100942.34;4958624;28;1160;-51
2023/12/10 09:43:48;;;;;;;;;;;;;;;16.67;39.77;100945.38;4959396;28;1329;-46
2023/12/10 09:46:14;;;;;;;;;;;;;;;15.90;41.28;100945.19;4963736;28;930;-48
2023/12/10 09:48:40;;;;;;;;;;;;;;;17.65;38.08;100935.72;4973758;28;1105;-55
2023/12/10 09:51:06;;;;;;;;;;;;;;;16.45;40.09;100933.63;4957346;28;1108;-51
2023/12/10 09:53:31;;;;;;;;;;;;;;;15.85;41.44;100937.56;4945405;28;1148;-52
2023/12/10 09:55:57;;;;;;;;;;;;;;;17.85;37.55;100931.56;4956734;28;1238;-51
2023/12/10 09:58:22;;;;;;;;;;;;;;;16.31;40.70;100923.94;4950508;28;1906;-51
2023/12/10 10:00:48;;;;;;;;;;;;;;;16.86;40.01;100927.19;4957342;28;2084;-47
2023/12/10 10:03:14;;;;;;;;;;;;;;;16.92;39.29;100914.41;4952605;28;1101;-52
2023/12/10 10:05:39;;;;;;;;;;;;;;;16.09;41.13;100909.50;4955894;28;1334;-49
2023/12/10 10:08:05;;;;;;;;;;;;;;;17.61;38.48;100915.66;4951618;28;1070;-49
2023/12/10 10:10:31;;;;;;;;;;;;;;;16.44;40.18;100900.91;4954928;28;1069;-49
2023/12/10 10:12:56;;;;;;;;;;;;;;;15.84;41.41;100903.16;4956224;28;1330;-46
2023/12/10 10:15:28;;;;;;;;;;;;;;;15.91;41.53;100901.81;4957741;28;1053;-47
2023/12/10 10:17:54;;;;;;;;;;;;;;;17.48;38.22;100892.63;4957055;28;1974;-47
2023/12/10 10:20:22;;;;;;;;;;;;;;;16.16;40.80;100889.56;4955497;28;1226;-50
2023/12/10 10:22:48;;;;;;;;;;;;;;;16.77;40.21;100893.28;4957192;28;1149;-47
2023/12/10 10:25:14;;;;;;;;;;;;;;;16.57;39.98;100878.78;4959618;28;1299;-42
2023/12/10 10:27:39;;;;;;;;;;;;;;;17.79;37.92;100878.84;4959681;28;1186;-47
2023/12/10 10:30:05;;;;;;;;;;;;;;;18.67;35.97;100874.78;4959557;28;1480;-48
2023/12/10 10:32:31;;;;;;;;;;;;;;;16.85;39.40;100874.16;4957210;28;1960;-46
2023/12/10 10:34:56;;;;;;;;;;;;;;;16.19;41.11;100865.44;4955437;28;1193;-46
2023/12/10 10:37:22;;;;;;;;;;;;;;;15.91;41.15;100862.00;4965010;28;1977;-49
2023/12/10 10:39:49;;;;;;;;;;;;;;;16.20;41.34;100856.50;4954603;29;1245;-46
2023/12/10 10:42:17;;;;;;;;;;;;;;;17.88;37.47;100853.34;4959918;28;1346;-49
2023/12/10 10:44:43;;;;;;;;;;;;;;;16.21;40.68;100852.94;4950924;28;1247;-43
2023/12/10 10:47:09;;;;;;;;;;;;;;;17.52;38.68;100855.19;4958876;28;1414;-46
2023/12/10 10:49:36;;;;;;;;;;;;;;;17.04;38.90;100848.88;4957154;28;1126;-46
2023/12/10 10:52:01;;;;;;;;;;;;;;;16.11;41.07;100844.75;4960492;28;1252;-47
2023/12/10 10:54:27;;;;;;;;;;;;;;;18.13;37.20;100835.50;4955772;28;1121;-47
2023/12/10 10:56:53;;;;;;;;;;;;;;;16.70;39.84;100828.31;4959152;28;1335;-49
2023/12/10 10:59:31;;;;;;;;;;;;;;;16.27;40.82;100839.22;4958824;28;1906;-46
2023/12/10 11:02:00;;;;;;;;;;;;;;;16.85;39.54;100831.66;4959916;28;1849;-48
2023/12/10 11:04:35;;;;;;;;;;;;;;;16.03;41.18;100824.03;4955640;28;1145;-49
2023/12/10 11:07:02;;;;;;;;;;;;;;;16.81;40.12;100831.03;4962926;28;1509;-49
2023/12/10 11:09:33;;;;;;;;;;;;;;;16.66;40.03;100822.34;4964686;28;1002;-46
2023/12/10 11:11:59;;;;;;;;;;;;;;;15.92;41.19;100826.56;4959282;28;1116;-48
2023/12/10 11:14:24;;;;;;;;;;;;;;;15.74;41.81;100818.06;4959167;28;1160;-50
2023/12/10 11:16:56;;;;;;;;;;;;;;;17.80;37.86;100818.50;4959449;28;1085;-45
2023/12/10 11:19:22;;;;;;;;;;;;;;;16.28;40.59;100810.88;4957071;28;1910;-48
2023/12/10 11:21:49;;;;;;;;;;;;;;;15.80;41.81;100804.38;4960308;28;1105;-46
2023/12/10 11:24:15;;;;;;;;;;;;;;;17.09;39.32;100810.41;4958637;28;1201;-49
2023/12/10 11:26:40;;;;;;;;;;;;;;;16.84;39.66;100806.03;4959663;28;1046;-46
2023/12/10 11:29:06;;;;;;;;;;;;;;;15.96;41.51;100800.66;4959933;28;1122;-48
2023/12/10 11:31:32;;;;;;;;;;;;;;;15.63;42.03;100798.44;4959188;28;2206;-47
2023/12/10 11:33:58;;;;;;;;;;;;;;;17.41;38.89;100798.31;4959862;28;1006;-48
2023/12/10 11:36:24;;;;;;;;;;;;;;;16.64;39.94;100789.75;4959248;28;1065;-47
2023/12/10 11:38:49;;;;;;;;;;;;;;;15.87;41.76;100787.09;4954023;28;1910;-49
2023/12/10 11:41:16;;;;;;;;;;;;;;;15.68;41.75;100792.84;4953497;28;1054;-44
2023/12/10 11:43:45;;;;;;;;;;;;;;;17.67;37.97;100781.31;4943563;28;863;-47
2023/12/10 11:46:21;;;;;;;;;;;;;;;16.06;40.97;100777.03;4953317;28;1117;-44
2023/12/10 11:48:46;;;;;;;;;;;;;;;15.63;41.99;100777.22;4954813;28;1049;-47
2023/12/10 11:51:12;;;;;;;;;;;;;;;17.31;38.98;100776.06;4954049;28;1077;-48
2023/12/10 11:53:37;;;;;;;;;;;;;;;15.96;41.57;100777.66;4956105;28;995;-48
2023/12/10 11:56:03;;;;;;;;;;;;;;;15.57;42.30;100772.34;4953678;28;1014;-45
2023/12/10 11:58:30;;;;;;;;;;;;;;;17.16;39.15;100775.41;4956934;28;1910;-48
2023/12/10 12:00:56;;;;;;;;;;;;;;;15.81;41.90;100779.56;4952592;28;1861;-47
2023/12/10 12:03:22;;;;;;;;;;;;;;;17.92;37.78;100777.59;4958365;28;1022;-46
2023/12/10 12:05:51;;;;;;;;;;;;;;;16.91;39.36;100774.53;4954482;28;1026;-47
2023/12/10 12:08:17;;;;;;;;;;;;;;;15.98;41.45;100772.25;4958893;28;897;-51
2023/12/10 12:10:43;;;;;;;;;;;;;;;17.62;38.40;100771.03;4954675;28;1122;-47
2023/12/10 12:13:09;;;;;;;;;;;;;;;16.25;40.65;100766.78;4958453;28;1251;-44
2023/12/10 12:15:34;;;;;;;;;;;;;;;15.75;42.39;100767.56;4945686;28;994;-48
2023/12/10 12:18:00;;;;;;;;;;;;;;;17.10;39.29;100760.78;4958667;28;1914;-45
2023/12/10 12:20:26;;;;;;;;;;;;;;;16.21;41.23;100759.16;4951680;28;1156;-47
2023/12/10 12:22:52;;;;;;;;;;;;;;;18.23;37.15;100759.22;4958840;28;1110;-46
2023/12/10 12:25:17;;;;;;;;;;;;;;;16.96;39.50;100762.63;4949004;28;1200;-47
2023/12/10 12:27:43;;;;;;;;;;;;;;;16.16;41.08;100756.84;4958316;28;946;-45
2023/12/10 12:30:09;;;;;;;;;;;;;;;17.90;37.64;100755.56;4958561;28;1132;-49
2023/12/10 12:32:35;;;;;;;;;;;;;;;16.42;40.60;100751.47;4956511;28;2074;-52
2023/12/10 12:35:00;;;;;;;;;;;;;;;17.32;39.13;100752.00;4954728;28;1142;-48
2023/12/10 12:37:26;;;;;;;;;;;;;;;17.11;39.12;100747.38;4958010;28;1915;-45
2023/12/10 12:39:53;;;;;;;;;;;;;;;16.15;41.41;100756.00;4948556;28;1083;-49